Ormond, Louisiana
Current Conditions -  °F | °C
As of 10:53 PM on Saturday 25 Oct 2014 (Local Time) from KMSY Reporting Station
Clear Clear  
Wind Chill: 67°   Ceiling: Unl
Heat Index: 67°   Visibility: 10mi
Dew Point: 57°   Wind: 7mph
Humidity: 70%   Direction: 320°NW
Pressure: 30.09"   Gusts: NA
Location:  29.9844°N, 90.363°W
Report Text: KMSY 260353Z 32006KT 10SM CLR 19/14 A3009 RMK AO2 SLP191 T01940139
Loading
Personal Weather Stations






























Interactive Weather Map
Tropical Storm Tracking
New forecast layout! Learn more

10-Day Weather Forecast

Advertisements
Track Severe Weather on mobile